Time;durP1;ratioP1;P1;durP2;ratioP2;P2;SDS_P1;SDS_P2;PMS_P1;PMS_P2;Temp;Humidity;BMP_temperature;BMP_pressure;BME280_temperature;BME280_humidity;BME280_pressure;Samples;Min_cycle;Max_cycle;Signal;HPM_P1;HPM_P2
2023/01/22 00:01:56;;;;;;;31.27;13.05;;;0.90;99.90;;;;;;5122907;27;20378;-85
2023/01/22 00:04:22;;;;;;;30.30;13.15;;;1.60;99.90;;;;;;5122309;27;20034;-86
2023/01/22 00:06:48;;;;;;;27.98;12.50;;;0.80;99.90;;;;;;5139690;27;20039;-85
2023/01/22 00:09:14;;;;;;;27.83;11.55;;;1.70;99.90;;;;;;5139501;27;20378;-84
2023/01/22 00:11:40;;;;;;;32.35;13.43;;;1.20;99.90;;;;;;5105763;27;20069;-86
2023/01/22 00:14:06;;;;;;;29.60;12.95;;;1.70;99.90;;;;;;5139221;27;20034;-85
2023/01/22 00:16:32;;;;;;;29.88;12.82;;;0.70;99.90;;;;;;5105674;27;20095;-83
2023/01/22 00:18:58;;;;;;;29.15;12.90;;;0.70;99.90;;;;;;5139338;27;20116;-85
2023/01/22 00:21:23;;;;;;;27.35;12.48;;;1.10;99.90;;;;;;5139283;27;20110;-85
2023/01/22 00:23:49;;;;;;;29.23;12.80;;;1.80;97.60;;;;;;5139602;27;20415;-84
2023/01/22 00:26:16;;;;;;;25.85;12.25;;;0.60;57.60;;;;;;5122239;27;20086;-86
2023/01/22 00:28:45;;;;;;;28.75;12.88;;;0.60;11.70;;;;;;5122051;27;20042;-86
2023/01/22 00:31:13;;;;;;;31.83;12.60;;;1.10;2.80;;;;;;5139273;27;20091;-86
2023/01/22 00:33:39;;;;;;;28.33;12.32;;;1.00;16.70;;;;;;5122160;27;20038;-88
2023/01/22 00:36:08;;;;;;;28.00;12.23;;;1.20;19.60;;;;;;5139054;27;20035;-86
2023/01/22 00:38:34;;;;;;;25.45;11.77;;;0.40;21.10;;;;;;5139224;27;20038;-87
2023/01/22 00:41:01;;;;;;;29.35;12.43;;;1.40;3.90;;;;;;5138976;27;20541;-87
2023/01/22 00:43:27;;;;;;;24.50;11.82;;;0.40;1.80;;;;;;5104912;27;20035;-86
2023/01/22 00:45:53;;;;;;;25.35;11.38;;;0.80;1.00;;;;;;5122210;27;20126;-87
2023/01/22 00:48:18;;;;;;;25.98;11.50;;;1.20;1.00;;;;;;5138948;27;20042;-87
2023/01/22 00:50:44;;;;;;;26.77;11.48;;;0.20;1.00;;;;;;5121915;27;20384;-87
2023/01/22 00:53:10;;;;;;;30.70;13.38;;;1.10;1.00;;;;;;5104859;27;20086;-87
2023/01/22 00:55:35;;;;;;;27.08;11.85;;;0.10;1.00;;;;;;5121617;27;20129;-87
2023/01/22 00:58:01;;;;;;;27.67;12.32;;;0.00;1.00;;;;;;5121805;27;20427;-86
2023/01/22 01:00:27;;;;;;;30.00;12.20;;;0.90;1.00;;;;;;5104649;27;20047;-86
2023/01/22 01:05:36;;;;;;;31.75;12.93;;;-0.10;1.00;;;;;;5124038;27;20043;-87
2023/01/22 01:08:02;;;;;;;29.55;11.82;;;0.70;4.00;;;;;;5087867;27;20462;-85
2023/01/22 01:10:28;;;;;;;28.25;12.00;;;-0.20;1.00;;;;;;5121597;27;20043;-85
2023/01/22 01:12:53;;;;;;;29.33;11.88;;;0.80;1.00;;;;;;5121435;27;20526;-85
2023/01/22 01:15:19;;;;;;;34.90;13.68;;;0.30;1.00;;;;;;5104047;27;20126;-85
2023/01/22 01:17:45;;;;;;;34.13;12.90;;;-0.20;7.70;;;;;;5121128;27;20057;-86
2023/01/22 01:20:11;;;;;;;29.50;12.57;;;1.00;27.60;;;;;;5138537;27;20050;-86
2023/01/22 01:22:37;;;;;;;28.75;11.77;;;-0.20;68.00;;;;;;5104484;27;20099;-86
2023/01/22 01:25:03;;;;;;;30.60;11.65;;;-0.20;58.10;;;;;;5104593;27;20416;-86
2023/01/22 01:27:30;;;;;;;29.65;12.73;;;-0.20;30.80;;;;;;5103869;27;20046;-86
2023/01/22 01:29:59;;;;;;;31.23;13.00;;;0.30;31.40;;;;;;5121293;27;20481;-86
2023/01/22 01:32:25;;;;;;;28.33;11.60;;;-0.20;68.90;;;;;;5137916;27;20043;-85
2023/01/22 01:34:50;;;;;;;29.15;11.40;;;0.10;92.00;;;;;;5137844;27;20041;-85
2023/01/22 01:37:16;;;;;;;30.70;12.32;;;-0.10;99.90;;;;;;5137945;27;20045;-85
2023/01/22 01:39:42;;;;;;;29.35;12.35;;;0.20;99.90;;;;;;5137821;27;20045;-86
2023/01/22 01:42:08;;;;;;;28.65;11.30;;;0.90;99.90;;;;;;5120842;27;20039;-87
2023/01/22 01:44:36;;;;;;;28.02;11.07;;;1.00;99.90;;;;;;5137302;27;20050;-86
2023/01/22 01:47:18;;;;;;;29.42;10.85;;;0.10;99.90;;;;;;5137833;27;20039;-86
2023/01/22 01:49:49;;;;;;;28.58;10.95;;;1.00;99.90;;;;;;5120058;27;20042;-86
2023/01/22 01:52:15;;;;;;;24.08;10.57;;;0.20;99.90;;;;;;5137925;27;20049;-86
2023/01/22 01:54:47;;;;;;;23.58;10.35;;;0.30;99.90;;;;;;5103377;27;20084;-86
2023/01/22 01:57:20;;;;;;;;;;;1.00;99.90;;;;;;5121080;27;20554;-85
2023/01/22 01:59:47;;;;;;;25.55;10.15;;;0.50;99.90;;;;;;5137047;27;19922;-85
2023/01/22 02:02:13;;;;;;;25.35;10.48;;;0.90;99.90;;;;;;5120447;27;20050;-86
2023/01/22 02:04:38;;;;;;;23.33;9.48;;;1.40;99.90;;;;;;5120253;27;20121;-86
2023/01/22 02:07:05;;;;;;;21.35;9.52;;;0.60;99.90;;;;;;5137579;27;20046;-85
2023/01/22 02:09:31;;;;;;;22.88;9.15;;;1.40;99.90;;;;;;5137168;27;20042;-86
2023/01/22 02:11:57;;;;;;;22.85;9.60;;;0.70;99.90;;;;;;5137458;27;20126;-83
2023/01/22 02:14:30;;;;;;;19.48;9.10;;;1.50;99.90;;;;;;5120017;27;20092;-86
2023/01/22 02:17:11;;;;;;;18.55;8.70;;;0.80;99.90;;;;;;5120085;27;20486;-84
2023/01/22 02:19:39;;;;;;;17.10;8.32;;;0.90;99.90;;;;;;5119468;27;20482;-87
2023/01/22 02:22:20;;;;;;;20.10;8.65;;;1.80;99.90;;;;;;5119871;27;20484;-86
2023/01/22 02:24:46;;;;;;;17.00;7.95;;;1.10;99.90;;;;;;5137130;27;20027;-85
2023/01/22 02:27:12;;;;;;;19.85;8.77;;;1.00;99.90;;;;;;5120191;27;20053;-86
2023/01/22 02:29:38;;;;;;;16.55;8.27;;;1.00;99.90;;;;;;5102941;27;20043;-86
2023/01/22 02:32:04;;;;;;;19.33;8.73;;;1.90;90.50;;;;;;5136849;27;20072;-86
2023/01/22 02:34:30;;;;;;;18.90;8.20;;;1.90;83.80;;;;;;5136798;27;20039;-87
2023/01/22 02:36:56;;;;;;;19.33;7.72;;;1.20;69.90;;;;;;5137036;27;20039;-87
2023/01/22 02:39:22;;;;;;;18.58;7.72;;;2.00;33.10;;;;;;5136950;27;20374;-86
2023/01/22 02:41:48;;;;;;;14.95;8.07;;;1.00;24.10;;;;;;5102415;27;20523;-87
2023/01/22 02:44:13;;;;;;;16.80;7.45;;;1.10;11.10;;;;;;5119886;27;20130;-86
2023/01/22 02:46:39;;;;;;;13.88;7.10;;;1.10;1.00;;;;;;5119660;27;20133;-85
2023/01/22 02:49:05;;;;;;;17.20;7.22;;;1.50;1.00;;;;;;5119941;27;20479;-86
2023/01/22 02:51:31;;;;;;;13.70;6.53;;;1.10;1.00;;;;;;5119610;27;20035;-87
2023/01/22 02:53:56;;;;;;;16.30;6.70;;;1.20;1.00;;;;;;5119727;27;20085;-86
2023/01/22 02:56:22;;;;;;;12.80;6.30;;;1.10;1.00;;;;;;5102695;27;20046;-85
2023/01/22 02:58:48;;;;;;;14.20;6.80;;;1.70;1.00;;;;;;5136645;27;20050;-85
2023/01/22 03:01:21;;;;;;;15.52;6.95;;;1.90;1.00;;;;;;5119314;27;20454;-86
2023/01/22 03:03:48;;;;;;;12.07;6.47;;;1.20;1.00;;;;;;5136544;27;20194;-86
2023/01/22 03:06:14;;;;;;;13.00;6.43;;;1.70;1.00;;;;;;5119544;27;20042;-86
2023/01/22 03:08:43;;;;;;;15.57;6.47;;;1.90;1.00;;;;;;5136547;27;20054;-86
2023/01/22 03:11:12;;;;;;;11.77;6.35;;;1.20;1.00;;;;;;5102534;27;20074;-86
2023/01/22 03:21:51;;;;;;;13.45;6.05;;;1.30;99.90;;;;;;5136248;27;20051;-85
2023/01/22 03:24:17;;;;;;;11.10;5.28;;;1.50;99.90;;;;;;5136308;27;20129;-82
2023/01/22 03:26:42;;;;;;;11.80;5.35;;;1.30;99.90;;;;;;5136227;27;20039;-86
2023/01/22 03:29:08;;;;;;;8.98;5.22;;;2.20;97.20;;;;;;5102338;27;20034;-85
2023/01/22 03:31:34;;;;;;;10.13;5.63;;;1.40;30.00;;;;;;5085505;27;20039;-86
2023/01/22 03:34:00;;;;;;;10.13;5.30;;;1.40;34.40;;;;;;5118832;27;20061;-85
2023/01/22 03:36:25;;;;;;;10.90;5.55;;;1.40;84.70;;;;;;5102363;27;20041;-84
2023/01/22 03:38:51;;;;;;;12.82;5.93;;;1.40;78.90;;;;;;5119188;27;20443;-85
2023/01/22 03:41:17;;;;;;;11.63;5.60;;;1.40;1.00;;;;;;5119210;27;20089;-83
2023/01/22 03:43:44;;;;;;;10.18;5.35;;;2.30;7.20;;;;;;5136268;27;20115;-84
2023/01/22 03:46:16;;;;;;;10.07;5.20;;;1.30;1.00;;;;;;5136227;27;20454;-85
2023/01/22 03:48:42;;;;;;;;;;;1.40;1.00;;;;;;5119324;27;20045;-84
2023/01/22 03:51:15;;;;;;;12.13;5.25;;;1.80;99.90;;;;;;5119190;27;19915;-86
2023/01/22 03:53:43;;;;;;;10.68;5.53;;;1.70;99.90;;;;;;5118944;27;20034;-85
2023/01/22 03:56:15;;;;;;;11.63;5.40;;;2.30;1.00;;;;;;5136065;27;20355;-83
2023/01/22 03:58:41;;;;;;;12.68;6.05;;;2.40;1.00;;;;;;5135776;27;20046;-86
2023/01/22 04:01:13;;;;;;;10.45;5.80;;;1.40;1.00;;;;;;5136057;27;20046;-81
2023/01/22 04:03:38;;;;;;;12.15;5.38;;;1.40;1.00;;;;;;5136098;27;20043;-85
2023/01/22 04:06:05;;;;;;;12.27;6.25;;;1.40;1.00;;;;;;5135872;27;20038;-86
2023/01/22 04:08:33;;;;;;;11.65;6.20;;;1.40;1.00;;;;;;5118910;27;20579;-85
2023/01/22 04:10:59;;;;;;;10.25;5.60;;;2.20;11.80;;;;;;5118922;27;20045;-86
2023/01/22 04:13:26;;;;;;;11.00;6.05;;;2.40;1.00;;;;;;5122514;27;20126;-85
2023/01/22 04:15:52;;;;;;;9.75;5.63;;;2.30;1.00;;;;;;5105460;27;20447;-86
2023/01/22 04:18:19;;;;;;;13.55;6.07;;;2.00;1.00;;;;;;5122213;27;20478;-85
2023/01/22 04:20:46;;;;;;;12.80;5.95;;;1.40;1.00;;;;;;5122409;27;20039;-87
2023/01/22 04:23:12;;;;;;;9.98;5.90;;;1.40;1.00;;;;;;5105421;27;20034;-85
2023/01/22 04:25:37;;;;;;;10.60;5.60;;;1.30;1.00;;;;;;5122248;27;20133;-86
2023/01/22 04:28:04;;;;;;;11.20;5.65;;;1.40;1.00;;;;;;5139237;27;20125;-85
2023/01/22 04:30:29;;;;;;;10.75;5.82;;;1.40;1.00;;;;;;5122711;27;20099;-84
2023/01/22 04:32:55;;;;;;;9.90;5.88;;;1.40;1.00;;;;;;5105043;27;20046;-82
2023/01/22 04:35:21;;;;;;;11.32;5.50;;;1.80;1.00;;;;;;5138983;27;20039;-83
2023/01/22 04:37:47;;;;;;;12.10;5.57;;;2.30;99.90;;;;;;5121948;27;20466;-87
2023/01/22 04:40:13;;;;;;;9.90;5.65;;;1.30;99.90;;;;;;5105068;27;20042;-84
2023/01/22 04:42:39;;;;;;;9.85;5.97;;;1.30;1.00;;;;;;5121936;27;20078;-87
2023/01/22 04:45:05;;;;;;;11.05;5.88;;;2.00;1.00;;;;;;5121760;27;20045;-82
2023/01/22 04:47:31;;;;;;;10.20;5.60;;;1.30;1.00;;;;;;5101116;27;20123;-85
2023/01/22 04:49:57;;;;;;;12.15;6.10;;;1.30;1.00;;;;;;5067479;27;20475;-86
2023/01/22 04:52:22;;;;;;;14.38;5.97;;;1.30;1.00;;;;;;5084438;27;20047;-86
2023/01/22 04:54:50;;;;;;;12.20;5.88;;;2.00;1.00;;;;;;5084346;27;20039;-85
2023/01/22 04:57:16;;;;;;;11.02;6.03;;;1.50;1.00;;;;;;5101339;27;20042;-85
2023/01/22 04:59:42;;;;;;;12.48;6.05;;;2.00;1.00;;;;;;5118298;27;20039;-86
2023/01/22 05:02:08;;;;;;;12.75;5.60;;;1.30;1.00;;;;;;5084375;27;20042;-83
2023/01/22 05:04:33;;;;;;;11.55;5.57;;;1.20;1.00;;;;;;5101110;27;20036;-85
2023/01/22 05:06:59;;;;;;;11.13;5.70;;;1.90;1.00;;;;;;5100863;27;20100;-85
2023/01/22 05:09:25;;;;;;;8.70;5.32;;;1.20;99.90;;;;;;5101023;27;20043;-84
2023/01/22 05:11:51;;;;;;;10.82;5.70;;;1.80;99.90;;;;;;5100985;27;20031;-83
2023/01/22 05:14:16;;;;;;;8.73;5.82;;;1.20;1.00;;;;;;5100423;27;20043;-84
2023/01/22 05:16:42;;;;;;;13.63;5.85;;;1.80;1.00;;;;;;5100874;27;20054;-83
2023/01/22 05:19:08;;;;;;;10.70;6.18;;;1.20;99.90;;;;;;5113870;28;20142;-84
2023/01/22 05:21:34;;;;;;;14.10;6.22;;;1.20;1.00;;;;;;5063586;28;20039;-85
2023/01/22 05:23:59;;;;;;;11.63;6.28;;;2.20;1.00;;;;;;5113186;28;20040;-86
2023/01/22 05:26:25;;;;;;;10.40;5.90;;;1.70;1.00;;;;;;5114268;28;20047;-85
2023/01/22 05:28:51;;;;;;;10.02;6.00;;;1.30;99.90;;;;;;5114326;28;20041;-86
2023/01/22 05:31:16;;;;;;;10.35;6.10;;;1.10;99.90;;;;;;5096810;28;20039;-86
2023/01/22 05:33:43;;;;;;;12.20;6.18;;;2.10;1.00;;;;;;5097245;28;20043;-83
2023/01/22 05:36:11;;;;;;;11.02;6.15;;;2.00;99.90;;;;;;5080314;28;20088;-84
2023/01/22 05:38:37;;;;;;;12.00;5.82;;;1.60;99.90;;;;;;5080599;28;20046;-84
2023/01/22 05:41:03;;;;;;;12.20;6.25;;;1.80;99.90;;;;;;5113878;28;20054;-86
2023/01/22 05:43:28;;;;;;;11.50;5.82;;;1.10;99.90;;;;;;5096990;28;20367;-85
2023/01/22 05:45:59;;;;;;;11.02;6.10;;;1.10;99.90;;;;;;5113920;28;20092;-86
2023/01/22 05:48:25;;;;;;;12.93;6.60;;;1.90;1.00;;;;;;5079851;28;20075;-86
2023/01/22 05:50:51;;;;;;;10.70;5.75;;;1.10;99.90;;;;;;5096806;28;20089;-84
2023/01/22 05:53:16;;;;;;;11.80;6.18;;;1.10;1.00;;;;;;5096399;28;20449;-86
2023/01/22 05:55:42;;;;;;;11.85;6.45;;;2.10;1.00;;;;;;5113847;28;20035;-85
2023/01/22 05:58:08;;;;;;;11.85;6.30;;;1.10;1.00;;;;;;5113471;28;20047;-86
2023/01/22 06:00:34;;;;;;;11.85;6.32;;;1.00;1.00;;;;;;5079774;28;20043;-84
2023/01/22 06:03:00;;;;;;;15.02;6.55;;;1.60;99.90;;;;;;5112757;27;20045;-82
2023/01/22 06:05:26;;;;;;;11.48;5.88;;;1.70;99.90;;;;;;5116606;27;20096;-86
2023/01/22 06:07:52;;;;;;;11.73;6.30;;;1.60;99.90;;;;;;5099955;27;20391;-85
2023/01/22 06:10:18;;;;;;;11.35;6.15;;;1.00;99.90;;;;;;5116404;27;20042;-85
2023/01/22 06:12:44;;;;;;;9.55;5.72;;;1.00;99.90;;;;;;5116587;27;20475;-83
2023/01/22 06:15:10;;;;;;;15.73;6.38;;;1.80;99.90;;;;;;5099377;27;20043;-86
2023/01/22 06:17:37;;;;;;;11.52;6.45;;;1.00;99.90;;;;;;5133909;27;20061;-85
2023/01/22 06:20:04;;;;;;;11.45;6.03;;;1.80;99.90;;;;;;5116056;27;20475;-84
2023/01/22 06:22:30;;;;;;;12.25;7.00;;;1.00;99.90;;;;;;5116744;27;20066;-86
2023/01/22 06:24:55;;;;;;;10.38;6.25;;;1.00;99.90;;;;;;5133893;27;20475;-85
2023/01/22 06:27:21;;;;;;;12.25;6.50;;;1.00;99.90;;;;;;5133596;27;20047;-86
2023/01/22 06:29:47;;;;;;;11.45;6.60;;;1.30;99.90;;;;;;5116642;27;20534;-85
2023/01/22 06:32:12;;;;;;;11.25;5.95;;;1.80;1.00;;;;;;5116445;27;20039;-86
2023/01/22 06:34:38;;;;;;;11.98;6.68;;;1.00;1.00;;;;;;5115999;27;20054;-85
2023/01/22 06:37:04;;;;;;;11.90;6.80;;;1.20;1.00;;;;;;5099376;27;20039;-86
2023/01/22 06:39:30;;;;;;;17.27;6.70;;;1.00;1.00;;;;;;5133485;27;20038;-87
2023/01/22 06:41:56;;;;;;;11.65;5.88;;;1.00;1.00;;;;;;5133513;27;20046;-86
2023/01/22 06:44:22;;;;;;;12.30;6.80;;;1.90;1.00;;;;;;5133245;27;20039;-86
2023/01/22 06:46:47;;;;;;;11.93;6.82;;;1.70;1.00;;;;;;5133364;27;20108;-87
2023/01/22 06:49:13;;;;;;;11.40;6.32;;;1.80;1.00;;;;;;5116088;27;20046;-85
2023/01/22 06:51:40;;;;;;;10.60;6.07;;;1.80;1.00;;;;;;5116130;27;20042;-84
2023/01/22 06:54:09;;;;;;;12.52;6.55;;;1.40;1.00;;;;;;5115981;27;20045;-89
2023/01/22 06:56:35;;;;;;;12.43;6.68;;;1.80;1.00;;;;;;5133242;27;20103;-86
2023/01/22 06:59:01;;;;;;;11.38;6.40;;;0.90;1.00;;;;;;5089397;28;20036;-86
2023/01/22 07:01:27;;;;;;;11.45;6.90;;;1.00;1.00;;;;;;5058651;28;20044;-84
2023/01/22 07:03:52;;;;;;;12.27;6.35;;;0.90;1.00;;;;;;5058828;28;20069;-85
2023/01/22 07:06:18;;;;;;;10.57;6.60;;;1.90;1.00;;;;;;5075206;28;20050;-85
2023/01/22 07:08:44;;;;;;;12.60;6.10;;;1.20;1.00;;;;;;5058721;28;20051;-85
2023/01/22 07:11:10;;;;;;;11.63;6.45;;;0.90;1.00;;;;;;5092002;28;20040;-86
2023/01/22 07:13:36;;;;;;;12.32;6.35;;;0.90;1.00;;;;;;5072727;28;20044;-85
2023/01/22 07:16:03;;;;;;;10.33;6.23;;;0.90;1.00;;;;;;4730995;28;10000554;-87
2023/01/22 07:18:29;;;;;;;13.57;6.85;;;0.90;1.00;;;;;;5096391;27;20286;-86
2023/01/22 07:20:58;;;;;;;11.60;6.47;;;1.50;1.00;;;;;;5099967;27;20046;-86
2023/01/22 07:23:24;;;;;;;16.50;6.88;;;0.90;7.30;;;;;;5134100;27;20087;-82
2023/01/22 07:25:49;;;;;;;11.50;7.30;;;0.90;8.20;;;;;;5116337;27;20043;-83
2023/01/22 07:28:15;;;;;;;12.55;6.97;;;1.80;1.00;;;;;;5117011;27;20035;-83
2023/01/22 07:30:42;;;;;;;13.05;7.05;;;0.90;1.00;;;;;;5133537;27;20035;-82
2023/01/22 07:33:10;;;;;;;12.23;6.63;;;2.00;1.00;;;;;;5116537;27;20066;-83
2023/01/22 07:35:35;;;;;;;12.63;6.70;;;1.80;1.00;;;;;;5115807;27;20118;-83
2023/01/22 07:38:01;;;;;;;12.88;7.22;;;1.60;1.00;;;;;;5115480;27;20466;-84
2023/01/22 07:40:27;;;;;;;12.68;7.35;;;1.90;9.50;;;;;;5133104;27;20407;-81
2023/01/22 07:42:54;;;;;;;12.40;7.50;;;0.90;9.80;;;;;;5115981;27;20051;-83
2023/01/22 07:45:21;;;;;;;12.48;7.90;;;1.00;25.70;;;;;;5115921;27;20049;-82
2023/01/22 07:48:06;;;;;;;12.40;7.50;;;0.90;19.40;;;;;;5118087;27;20043;-83
2023/01/22 07:50:33;;;;;;;14.07;7.28;;;1.00;29.20;;;;;;5136927;27;20439;-80
2023/01/22 07:53:01;;;;;;;13.60;7.47;;;1.00;26.80;;;;;;5119598;27;20043;-83
2023/01/22 07:55:28;;;;;;;13.50;7.75;;;1.00;28.40;;;;;;5086763;27;20035;-83
2023/01/22 07:57:58;;;;;;;11.90;7.70;;;1.00;46.00;;;;;;5137653;27;20438;-83
2023/01/22 08:00:24;;;;;;;14.57;7.95;;;1.00;44.70;;;;;;5136885;27;20039;-83
2023/01/22 08:02:50;;;;;;;14.10;8.80;;;1.00;44.20;;;;;;5120602;27;20050;-83
2023/01/22 08:05:16;;;;;;;15.05;8.10;;;1.00;30.80;;;;;;5120379;27;20061;-87
2023/01/22 08:07:42;;;;;;;15.70;9.02;;;1.00;64.50;;;;;;5120301;27;20099;-83
2023/01/22 08:10:09;;;;;;;15.98;8.98;;;1.00;41.80;;;;;;5120316;27;20038;-81
2023/01/22 08:12:40;;;;;;;15.70;9.05;;;1.00;93.40;;;;;;5136780;27;20042;-83
2023/01/22 08:15:06;;;;;;;13.55;9.02;;;1.00;99.90;;;;;;5120800;27;20178;-83
2023/01/22 08:17:32;;;;;;;14.40;8.82;;;1.00;90.20;;;;;;5120157;27;20046;-83
2023/01/22 08:19:57;;;;;;;15.25;8.73;;;1.30;76.60;;;;;;5119392;27;20047;-83
2023/01/22 08:22:23;;;;;;;14.70;8.73;;;1.90;70.70;;;;;;5137104;27;20047;-83
2023/01/22 08:24:49;;;;;;;16.27;9.13;;;1.00;18.70;;;;;;5102476;27;20046;-83
2023/01/22 08:27:15;;;;;;;16.30;8.90;;;1.60;32.50;;;;;;5120067;27;20053;-83
2023/01/22 08:29:40;;;;;;;14.20;8.85;;;1.80;1.00;;;;;;5137044;27;20043;-82
2023/01/22 08:32:06;;;;;;;14.20;8.60;;;1.00;1.00;;;;;;5119765;27;20073;-83
2023/01/22 08:34:32;;;;;;;14.90;8.73;;;1.10;1.00;;;;;;5138625;27;20427;-81
2023/01/22 08:36:57;;;;;;;16.17;9.45;;;1.10;2.10;;;;;;5122263;27;20042;-81
2023/01/22 08:39:23;;;;;;;13.65;8.75;;;1.10;13.30;;;;;;5138956;27;20035;-82
2023/01/22 08:41:51;;;;;;;15.82;9.45;;;1.10;56.60;;;;;;5122097;27;20070;-83
2023/01/22 08:44:16;;;;;;;14.57;8.85;;;1.70;66.30;;;;;;5122214;27;20046;-84
2023/01/22 08:46:42;;;;;;;13.18;8.63;;;1.20;48.30;;;;;;5104800;27;20050;-83
2023/01/22 08:49:08;;;;;;;14.68;8.45;;;1.20;56.90;;;;;;5121962;27;20146;-82
2023/01/22 08:51:34;;;;;;;12.90;8.85;;;1.10;1.00;;;;;;5088039;27;20042;-84
2023/01/22 08:53:59;;;;;;;12.07;9.15;;;1.10;1.00;;;;;;5104910;27;20043;-83
2023/01/22 08:56:25;;;;;;;15.35;9.27;;;1.10;1.00;;;;;;5138555;27;20050;-82
2023/01/22 08:58:51;;;;;;;14.80;9.43;;;1.10;1.00;;;;;;5121322;27;20035;-82
2023/01/22 09:01:18;;;;;;;12.55;8.82;;;1.10;1.00;;;;;;5121769;27;20038;-83
2023/01/22 09:03:45;;;;;;;15.70;9.38;;;1.10;1.00;;;;;;5138589;27;20039;-82
2023/01/22 09:06:11;;;;;;;15.02;9.35;;;1.20;1.00;;;;;;5138664;27;20049;-84
2023/01/22 09:08:37;;;;;;;13.75;9.00;;;1.30;1.00;;;;;;5138494;27;20046;-83
2023/01/22 09:11:04;;;;;;;13.45;8.82;;;1.30;1.00;;;;;;5104618;27;20047;-83
2023/01/22 09:13:30;;;;;;;12.20;9.18;;;1.40;1.00;;;;;;5121250;27;20489;-82
2023/01/22 09:16:14;;;;;;;13.18;8.27;;;1.40;1.00;;;;;;5156796;27;20034;-82
2023/01/22 09:18:40;;;;;;;11.65;8.38;;;1.60;1.00;;;;;;5137874;27;20413;-83
2023/01/22 09:21:07;;;;;;;14.30;9.30;;;2.10;1.00;;;;;;5104499;27;20050;-84
2023/01/22 09:23:33;;;;;;;15.52;8.70;;;1.80;1.00;;;;;;5121008;27;20078;-84
2023/01/22 09:26:00;;;;;;;12.43;8.10;;;2.30;1.00;;;;;;5138237;27;20078;-83
2023/01/22 09:28:25;;;;;;;11.77;8.27;;;1.70;1.00;;;;;;5121119;27;20039;-84
2023/01/22 09:30:51;;;;;;;14.15;9.10;;;2.40;1.00;;;;;;5120765;27;20095;-84
2023/01/22 09:33:17;;;;;;;13.25;8.70;;;1.90;1.00;;;;;;5120882;27;20051;-84
2023/01/22 09:35:42;;;;;;;12.63;8.45;;;1.80;1.00;;;;;;5086629;27;20042;-84
2023/01/22 09:38:11;;;;;;;13.05;9.23;;;2.30;1.00;;;;;;5103883;27;20071;-84
2023/01/22 09:40:57;;;;;;;13.35;9.10;;;2.50;99.90;;;;;;5120910;27;20045;-83
2023/01/22 09:43:32;;;;;;;14.98;9.27;;;1.90;99.90;;;;;;5138004;27;20045;-83
2023/01/22 09:46:02;;;;;;;15.18;9.65;;;1.90;99.90;;;;;;5137986;27;20125;-85
2023/01/22 09:48:44;;;;;;;16.25;9.80;;;2.30;1.00;;;;;;5120869;27;20375;-83
2023/01/22 09:51:14;;;;;;;13.27;8.68;;;2.00;99.90;;;;;;5120811;27;20142;-82
2023/01/22 09:53:50;;;;;;;13.07;8.98;;;2.00;99.90;;;;;;5120496;27;20058;-83
2023/01/22 09:56:22;;;;;;;16.20;9.90;;;2.00;99.90;;;;;;5120710;27;20133;-84
2023/01/22 09:58:51;;;;;;;13.68;9.48;;;2.20;99.90;;;;;;5119956;27;20042;-83
2023/01/22 10:01:20;;;;;;;16.20;9.35;;;2.20;1.00;;;;;;5120947;27;20038;-84
2023/01/22 10:03:51;;;;;;;15.13;9.10;;;2.20;99.90;;;;;;5120325;27;20050;-82
2023/01/22 10:06:21;;;;;;;14.32;9.18;;;2.90;99.90;;;;;;5117281;27;20054;-85
2023/01/22 10:09:17;;;;;;;14.80;9.63;;;2.10;99.90;;;;;;5134254;27;20086;-86
2023/01/22 10:11:48;;;;;;;15.57;9.30;;;2.10;99.90;;;;;;5111427;27;20046;-86
2023/01/22 10:14:16;;;;;;;12.32;8.90;;;2.80;99.90;;;;;;5134888;27;20031;-84
2023/01/22 10:16:44;;;;;;;18.10;9.80;;;2.10;99.90;;;;;;5117686;27;20049;-85
2023/01/22 10:19:17;;;;;;;14.07;9.38;;;2.80;99.90;;;;;;5133888;27;20121;-84
2023/01/22 10:21:49;;;;;;;17.63;10.52;;;2.20;99.90;;;;;;5117209;27;20382;-85
2023/01/22 10:24:15;;;;;;;15.98;9.82;;;2.20;99.90;;;;;;5117620;27;20384;-83
2023/01/22 10:26:53;;;;;;;16.05;10.75;;;2.20;99.90;;;;;;5134508;27;20050;-84
2023/01/22 10:29:28;;;;;;;13.38;9.45;;;2.30;99.90;;;;;;5115852;27;20042;-84
2023/01/22 10:31:59;;;;;;;15.13;9.85;;;2.30;99.90;;;;;;5115419;27;20082;-84
2023/01/22 10:34:35;;;;;;;13.32;9.07;;;2.30;20.40;;;;;;5117259;27;20038;-83
2023/01/22 10:37:17;;;;;;;16.58;9.98;;;2.30;20.10;;;;;;5134228;27;20452;-84
2023/01/22 10:39:49;;;;;;;15.57;9.77;;;2.30;49.90;;;;;;5100259;27;20420;-86
2023/01/22 10:42:21;;;;;;;15.23;9.93;;;2.30;51.20;;;;;;5134232;27;20066;-85
2023/01/22 10:44:48;;;;;;;13.73;9.63;;;2.30;63.60;;;;;;4779330;27;9999746;-84
2023/01/22 10:47:20;;;;;;;14.23;9.20;;;2.80;99.90;;;;;;5116793;27;20466;-84
2023/01/22 10:49:46;;;;;;;;;;;2.50;47.60;;;;;;5117560;27;20070;-84
2023/01/22 10:52:29;;;;;;;14.40;9.10;;;2.60;1.00;;;;;;5133527;27;19970;-83
2023/01/22 10:54:58;;;;;;;15.13;9.38;;;2.70;1.00;;;;;;5115207;27;20074;-84
2023/01/22 10:57:35;;;;;;;13.55;9.30;;;3.00;1.00;;;;;;5117429;27;20043;-84
2023/01/22 11:00:24;;;;;;;13.13;8.95;;;2.90;39.70;;;;;;5132849;27;20099;-84
2023/01/22 11:02:50;;;;;;;12.55;9.32;;;3.00;1.00;;;;;;5116816;27;20371;-84
2023/01/22 11:05:21;;;;;;;13.57;9.02;;;3.00;1.00;;;;;;5134224;27;20135;-84
2023/01/22 11:07:52;;;;;;;12.40;8.90;;;3.10;1.00;;;;;;5133992;27;20042;-83
2023/01/22 11:10:20;;;;;;;12.18;8.65;;;3.50;1.00;;;;;;5117282;27;20047;-83
2023/01/22 11:12:51;;;;;;;15.68;9.05;;;3.00;1.00;;;;;;5116994;27;20047;-83
2023/01/22 11:15:37;;;;;;;13.52;8.77;;;3.00;1.00;;;;;;5134139;27;20046;-84
2023/01/22 11:18:04;;;;;;;11.98;8.95;;;3.00;1.00;;;;;;5134051;27;20043;-84
2023/01/22 11:20:39;;;;;;;13.13;8.73;;;3.50;41.40;;;;;;5116569;27;20059;-84
2023/01/22 11:23:16;;;;;;;14.60;8.88;;;3.10;1.00;;;;;;5137390;27;20050;-86
2023/01/22 11:26:14;;;;;;;12.60;8.23;;;3.10;1.00;;;;;;5132196;27;20041;-84
2023/01/22 11:29:03;;;;;;;12.65;8.10;;;3.00;1.00;;;;;;5125269;27;20055;-84
2023/01/22 11:31:44;;;;;;;11.77;8.82;;;3.00;1.00;;;;;;5108999;27;20051;-85
2023/01/22 11:34:27;;;;;;;11.10;7.87;;;3.10;1.00;;;;;;5124328;27;20032;-84
2023/01/22 11:37:07;;;;;;;12.18;8.20;;;3.00;1.00;;;;;;5100170;27;20470;-85
2023/01/22 11:40:00;;;;;;;12.48;8.82;;;3.10;1.00;;;;;;5121014;27;20131;-86
2023/01/22 11:42:43;;;;;;;12.43;8.23;;;3.00;1.00;;;;;;5116778;27;20118;-85
2023/01/22 11:45:29;;;;;;;11.68;7.75;;;3.00;1.00;;;;;;5116713;27;20034;-84
2023/01/22 11:47:57;;;;;;;13.13;7.85;;;3.40;1.00;;;;;;5135040;27;20030;-84
2023/01/22 11:50:32;;;;;;;13.13;7.90;;;2.90;1.00;;;;;;5133194;27;20035;-84
2023/01/22 11:53:14;;;;;;;11.80;7.03;;;2.90;1.00;;;;;;5131283;27;20074;-84
2023/01/22 11:55:49;;;;;;;10.82;7.57;;;3.60;1.00;;;;;;5115362;27;20045;-84
2023/01/22 11:58:48;;;;;;;12.95;7.90;;;2.90;1.00;;;;;;5133674;27;20039;-84
2023/01/22 12:01:51;;;;;;;11.10;6.95;;;2.90;1.00;;;;;;5128852;27;20099;-82
2023/01/22 12:04:22;;;;;;;12.77;8.02;;;2.80;1.00;;;;;;5100426;27;20047;-84
2023/01/22 12:07:22;;;;;;;12.75;7.00;;;2.80;1.70;;;;;;5128094;27;20050;-83
2023/01/22 12:10:09;;;;;;;11.88;7.30;;;2.80;1.00;;;;;;5119599;27;20038;-83
2023/01/22 12:12:46;;;;;;;12.63;7.07;;;2.80;1.00;;;;;;5136932;27;20126;-83
2023/01/22 12:15:32;;;;;;;12.35;7.60;;;2.80;38.30;;;;;;5123540;27;20098;-82
2023/01/22 12:18:31;;;;;;;12.35;7.65;;;2.80;1.00;;;;;;5131390;27;20453;-82
2023/01/22 12:21:06;;;;;;;13.35;7.50;;;2.70;1.00;;;;;;5126351;27;20054;-84
2023/01/22 12:23:54;;;;;;;12.52;7.70;;;2.80;30.80;;;;;;5096381;28;20055;-84
2023/01/22 12:26:28;;;;;;;12.95;7.38;;;2.70;1.00;;;;;;5113491;28;20125;-85
2023/01/22 12:29:06;;;;;;;12.95;7.57;;;2.70;57.80;;;;;;5113440;27;20043;-84
2023/01/22 12:31:35;;;;;;;12.82;7.75;;;2.70;79.30;;;;;;5113159;27;20537;-84
2023/01/22 12:34:08;;;;;;;13.25;8.05;;;2.70;83.20;;;;;;5119453;27;20069;-84
2023/01/22 12:36:34;;;;;;;17.85;8.05;;;3.10;99.90;;;;;;5096440;28;20069;-84
2023/01/22 12:39:07;;;;;;;11.45;7.50;;;3.40;99.90;;;;;;5132228;27;20047;-82
2023/01/22 12:41:43;;;;;;;13.50;7.45;;;2.70;99.90;;;;;;5119884;27;20039;-83
2023/01/22 12:44:44;;;;;;;11.75;6.88;;;2.70;99.90;;;;;;5096364;27;20039;-83
2023/01/22 12:47:29;;;;;;;13.15;6.93;;;2.70;99.90;;;;;;5101275;27;20072;-83
2023/01/22 12:49:55;;;;;;;11.25;6.13;;;3.00;99.90;;;;;;5101756;28;20053;-82
2023/01/22 12:52:36;;;;;;;10.77;7.07;;;2.70;99.90;;;;;;5095599;28;20134;-85
2023/01/22 12:55:20;;;;;;;13.30;7.60;;;2.70;99.90;;;;;;5112142;28;20443;-85
2023/01/22 12:57:46;;;;;;;12.80;8.00;;;2.80;99.90;;;;;;5112763;28;20409;-84
2023/01/22 13:00:34;;;;;;;15.93;8.30;;;2.80;99.90;;;;;;5107096;27;20043;-85
2023/01/22 13:03:20;;;;;;;17.08;7.93;;;2.80;99.90;;;;;;5113779;27;20084;-83
2023/01/22 13:05:46;;;;;;;16.05;8.30;;;2.80;99.90;;;;;;5115707;27;20039;-83
2023/01/22 13:08:22;;;;;;;17.55;8.07;;;2.90;99.90;;;;;;5132874;27;20120;-84
2023/01/22 13:10:58;;;;;;;15.48;8.38;;;2.90;99.90;;;;;;5133097;27;20035;-85
2023/01/22 13:13:38;;;;;;;16.02;8.10;;;2.90;99.90;;;;;;5115569;27;20047;-84